Home > Products > Valid Products > TAF

000
FTPQ31 PGUM 282300
TAFPQ
TAF
PGUM 282339Z 2900/3006 07015G27KT P6SM VCSH SCT020=



000
FTPQ31 PGUM 282300
TAFPQ
TAF
PGUM 282339Z 2900/3006 07015G27KT P6SM VCSH SCT020=



000
FTPQ31 PGUM 281700
TAFPQ
TAF
PGUM 281736Z 2818/2924 07013G21KT P6SM VCSH SCT020=



000
FTPQ31 PGUM 281700
TAFPQ
TAF
PGUM 281736Z 2818/2924 07013G21KT P6SM VCSH SCT020=



000
FTPQ31 PGUM 281100 RRA
TAFPQ
TAF
PGUM 281146Z 2812/2918 07010KT P6SM VCSH SCT020 BKN050
     FM290000 07013G21KT P6SM VCSH SCT020=



000
FTPQ31 PGUM 281100 RRA
TAFPQ
TAF
PGUM 281146Z 2812/2918 07010KT P6SM VCSH SCT020 BKN050
     FM290000 07013G21KT P6SM VCSH SCT020=



000
FTPQ31 PGUM 280500
TAFPQ
TAF
PGUM 280532Z 2806/2912 07013G23KT P6SM VCSH SCT020 SCT050
     FM280800 07010G20KT P6SM VCSH SCT020 SCT050=



000
FTPQ31 PGUM 280500
TAFPQ
TAF
PGUM 280532Z 2806/2912 07013G23KT P6SM VCSH SCT020 SCT050
     FM280800 07010G20KT P6SM VCSH SCT020 SCT050=



000
FTPQ31 PGUM 272300
TAFPQ
TAF
PGUM 272336Z 2800/2906 07015G25KT P6SM VCSH SCT020 BKN050=



000
FTPQ31 PGUM 272300
TAFPQ
TAF
PGUM 272336Z 2800/2906 07015G25KT P6SM VCSH SCT020 BKN050=



000
FTPQ31 PGUM 271700
TAFPQ
TAF
PGUM 271723Z 2718/2824 07014KT P6SM VCSH FEW020 SCT050=



000
FTPQ31 PGUM 271700
TAFPQ
TAF
PGUM 271723Z 2718/2824 07014KT P6SM VCSH FEW020 SCT050=



000
FTPQ31 PGUM 271100
TAFPQ
TAF
PGUM 271120Z 2712/2818 07014KT P6SM VCSH FEW020 SCT050=



000
FTPQ31 PGUM 271100
TAFPQ
TAF
PGUM 271120Z 2712/2818 07014KT P6SM VCSH FEW020 SCT050=



000
FTPQ31 PGUM 270500
TAFPQ
TAF
PGUM 270526Z 2706/2812 06016G25KT P6SM VCSH SCT022 SCT040
      TEMPO 2706/2708 4SM SHRA SCT017 BKN030
     FM270900 07010KT P6SM VCSH FEW020 SCT050=



000
FTPQ31 PGUM 262300
TAFPQ
TAF
PGUM 262326Z 2700/2806 06016G25KT P6SM VCSH SCT022 SCT040=



000
FTPQ31 PGUM 262300
TAFPQ
TAF
PGUM 262326Z 2700/2806 06016G25KT P6SM VCSH SCT022 SCT040=



000
FTPQ31 PGUM 261700
TAFPQ
TAF
PGUM 261720Z 2618/2724 06010KT P6SM VCSH SCT022 SCT040
     FM270000 07016KT P6SM VCSH SCT022 SCT040=



000
FTPQ31 PGUM 261700
TAFPQ
TAF
PGUM 261720Z 2618/2724 06010KT P6SM VCSH SCT022 SCT040
     FM270000 07016KT P6SM VCSH SCT022 SCT040=



000
FTPQ31 PGUM 261500 AAA
TAFPQ
TAF AMD
PGUM 261504Z 2615/2718 06008KT P6SM VCSH SCT022 SCT040
     FM270000 07016KT P6SM VCSH SCT022 SCT040=



000
FTPQ31 PGUM 261100
TAFPQ
TAF
PGUM 261120Z 2612/2718 06008KT P6SM SCT022
     FM270000 07016KT P6SM VCSH SCT022 SCT040=



000
FTPQ31 PGUM 261100
TAFPQ
TAF
PGUM 261120Z 2612/2718 06008KT P6SM SCT022
     FM270000 07016KT P6SM VCSH SCT022 SCT040=



000
FTPQ31 PGUM 260500
TAFPQ
TAF
PGUM 260534Z 2606/2712 07014KT P6SM FEW024
     FM260800 07008KT P6SM SCT022
     FM270000 07016KT P6SM VCSH SCT022=



000
FTPQ31 PGUM 260500
TAFPQ
TAF
PGUM 260534Z 2606/2712 07014KT P6SM FEW024
     FM260800 07008KT P6SM SCT022
     FM270000 07016KT P6SM VCSH SCT022=



    US Dept of Commerce
    National Oceanic and Atmospheric Administration
    National Weather Service
    1325 East West Highway
    Silver Spring, MD 20910
    Page Author: NWS Internet Services Team
Disclaimer
Information Quality
Credits
Glossary
Privacy Policy
Freedom of Information Act (FOIA)
About Us
Career Opportunities